Time;durP1;ratioP1;P1;durP2;ratioP2;P2;SDS_P1;SDS_P2;PMS_P1;PMS_P2;Temp;Humidity;BMP_temperature;BMP_pressure;BME280_temperature;BME280_humidity;BME280_pressure;Samples;Min_cycle;Max_cycle;Signal;HPM_P1;HPM_P2
2021/09/04 00:01:36;;;;;;;12.27;5.13;;;13.10;89.30;;;;;;5001524;28;20113;-70
2021/09/04 00:04:01;;;;;;;11.00;5.20;;;13.10;89.30;;;;;;5004633;28;20026;-69
2021/09/04 00:06:27;;;;;;;11.95;5.25;;;13.10;89.10;;;;;;5000037;28;20120;-72
2021/09/04 00:08:52;;;;;;;9.32;5.07;;;13.20;89.00;;;;;;5001221;28;20244;-70
2021/09/04 00:11:19;;;;;;;10.77;5.18;;;13.30;88.90;;;;;;5001366;28;20026;-69
2021/09/04 00:13:45;;;;;;;14.52;5.10;;;13.30;89.00;;;;;;5005801;28;20034;-71
2021/09/04 00:16:11;;;;;;;9.85;4.70;;;13.30;89.10;;;;;;5002162;28;20030;-72
2021/09/04 00:18:37;;;;;;;10.88;4.93;;;13.30;89.00;;;;;;5010279;28;20576;-69
2021/09/04 00:21:02;;;;;;;15.70;5.28;;;13.30;88.80;;;;;;5000708;28;20159;-69
2021/09/04 00:23:28;;;;;;;9.18;5.05;;;13.40;88.60;;;;;;4999019;28;20025;-71
2021/09/04 00:25:54;;;;;;;8.15;4.55;;;13.40;88.90;;;;;;4998261;28;20030;-71
2021/09/04 00:28:20;;;;;;;10.98;4.72;;;13.50;88.80;;;;;;5001848;28;20523;-69
2021/09/04 00:30:47;;;;;;;12.93;4.47;;;13.40;88.40;;;;;;4997470;28;20445;-72
2021/09/04 00:33:12;;;;;;;9.93;4.70;;;13.50;88.00;;;;;;5000793;28;20218;-69
2021/09/04 00:35:38;;;;;;;12.32;5.45;;;13.40;87.90;;;;;;5008074;28;20105;-71
2021/09/04 00:38:04;;;;;;;11.23;4.72;;;13.40;87.90;;;;;;5002546;28;20034;-69
2021/09/04 00:40:29;;;;;;;9.75;4.65;;;13.50;87.80;;;;;;5002480;28;20029;-70
2021/09/04 00:42:55;;;;;;;10.95;4.93;;;13.50;87.80;;;;;;5001581;28;20030;-70
2021/09/04 00:45:21;;;;;;;10.35;5.00;;;13.50;87.40;;;;;;5001288;28;20493;-72
2021/09/04 00:47:58;;;;;;;12.93;5.20;;;13.50;87.50;;;;;;5004799;28;20076;-69
2021/09/04 00:50:26;;;;;;;10.25;4.55;;;13.60;87.60;;;;;;5005682;28;20037;-69
2021/09/04 00:52:52;;;;;;;10.38;5.20;;;13.60;87.50;;;;;;5000721;28;20033;-72
2021/09/04 00:55:18;;;;;;;9.77;4.43;;;13.60;86.70;;;;;;5003949;28;20034;-69
2021/09/04 00:57:44;;;;;;;9.43;5.43;;;13.60;86.60;;;;;;5005398;28;20084;-70
2021/09/04 01:00:10;;;;;;;10.30;4.53;;;13.70;86.50;;;;;;5002299;28;20057;-69
2021/09/04 01:02:35;;;;;;;14.27;5.28;;;13.60;86.70;;;;;;5003355;28;20485;-69
2021/09/04 01:05:01;;;;;;;13.70;5.38;;;13.60;86.50;;;;;;5005999;28;20034;-69
2021/09/04 01:07:27;;;;;;;10.07;4.95;;;13.60;86.70;;;;;;5002415;28;20041;-73
2021/09/04 01:09:53;;;;;;;14.93;5.50;;;13.60;86.60;;;;;;5001688;28;20033;-71
2021/09/04 01:12:19;;;;;;;14.25;5.07;;;13.60;86.40;;;;;;5005011;28;20036;-71
2021/09/04 01:14:44;;;;;;;10.23;5.53;;;13.60;86.50;;;;;;5009408;28;20416;-69
2021/09/04 01:17:10;;;;;;;10.00;5.15;;;13.60;86.30;;;;;;5007419;28;20038;-69
2021/09/04 01:19:36;;;;;;;11.05;5.40;;;13.70;86.40;;;;;;5002437;28;20036;-69
2021/09/04 01:22:02;;;;;;;12.23;5.63;;;13.60;86.20;;;;;;4999556;28;20451;-72
2021/09/04 01:24:27;;;;;;;11.13;4.93;;;13.60;86.30;;;;;;5003350;28;20060;-72
2021/09/04 01:26:54;;;;;;;8.20;4.25;;;13.70;86.30;;;;;;5011698;28;20504;-70
2021/09/04 01:29:19;;;;;;;11.32;4.88;;;13.60;85.50;;;;;;5003658;28;20026;-71
2021/09/04 01:31:45;;;;;;;7.18;4.50;;;13.70;84.90;;;;;;5006436;28;20410;-69
2021/09/04 01:34:11;;;;;;;8.07;5.45;;;13.70;85.40;;;;;;5004894;28;20136;-70
2021/09/04 01:36:38;;;;;;;9.75;5.03;;;13.60;85.60;;;;;;5008336;28;20060;-72
2021/09/04 01:39:07;;;;;;;10.13;4.93;;;13.60;85.80;;;;;;5001343;28;20063;-70
2021/09/04 01:41:33;;;;;;;15.90;4.10;;;13.70;85.90;;;;;;5004296;28;20032;-69
2021/09/04 01:44:00;;;;;;;19.95;4.15;;;13.60;85.30;;;;;;5005805;28;20073;-69
2021/09/04 01:46:26;;;;;;;12.43;4.25;;;13.60;85.70;;;;;;5007111;28;20465;-72
2021/09/04 01:48:52;;;;;;;9.20;3.60;;;13.60;85.60;;;;;;5003133;28;20052;-69
2021/09/04 01:51:18;;;;;;;10.32;3.78;;;13.70;85.50;;;;;;5003771;28;20034;-70
2021/09/04 01:53:44;;;;;;;7.88;3.20;;;13.70;85.40;;;;;;5006636;28;20040;-69
2021/09/04 01:56:11;;;;;;;9.68;3.67;;;13.60;85.40;;;;;;5010210;28;20033;-71
2021/09/04 01:58:37;;;;;;;5.45;2.75;;;13.60;86.10;;;;;;5011095;28;20378;-69
2021/09/04 02:01:03;;;;;;;9.68;2.88;;;13.60;85.40;;;;;;5004179;28;20044;-70
2021/09/04 02:03:29;;;;;;;8.68;2.65;;;13.60;85.40;;;;;;5005423;28;20083;-72
2021/09/04 02:05:55;;;;;;;7.10;2.50;;;13.60;85.00;;;;;;5006473;28;20026;-72
2021/09/04 02:08:20;;;;;;;5.15;2.42;;;13.60;85.20;;;;;;5002541;28;20042;-71
2021/09/04 02:10:46;;;;;;;8.10;2.92;;;13.60;85.20;;;;;;5002788;28;20018;-69
2021/09/04 02:13:12;;;;;;;10.63;2.67;;;13.60;85.10;;;;;;5005801;28;20052;-72
2021/09/04 02:15:37;;;;;;;9.45;2.72;;;13.60;85.60;;;;;;5009066;28;20524;-71
2021/09/04 02:18:03;;;;;;;12.35;2.65;;;13.60;85.20;;;;;;5003698;28;20489;-72
2021/09/04 02:20:29;;;;;;;9.00;2.72;;;13.60;85.20;;;;;;4999675;28;20625;-69
2021/09/04 02:22:54;;;;;;;7.00;2.22;;;13.60;85.10;;;;;;5002671;28;20116;-69
2021/09/04 02:25:20;;;;;;;8.38;2.70;;;13.60;85.10;;;;;;5004574;28;20028;-72
2021/09/04 02:27:46;;;;;;;7.68;2.22;;;13.50;85.10;;;;;;5003666;28;20026;-74
2021/09/04 02:30:11;;;;;;;10.88;2.72;;;13.60;84.90;;;;;;5003461;28;20179;-71
2021/09/04 02:32:38;;;;;;;7.38;2.30;;;13.60;84.90;;;;;;5000604;28;20025;-69
2021/09/04 02:35:04;;;;;;;6.82;2.17;;;13.60;84.80;;;;;;5006808;28;20411;-69
2021/09/04 02:37:30;;;;;;;8.35;2.28;;;13.60;85.20;;;;;;5004695;28;20109;-70
2021/09/04 02:39:55;;;;;;;6.97;2.28;;;13.60;85.40;;;;;;5006266;28;20457;-69
2021/09/04 02:42:21;;;;;;;6.95;2.03;;;13.60;85.40;;;;;;4999746;28;20033;-71
2021/09/04 02:44:47;;;;;;;9.38;2.50;;;13.60;85.30;;;;;;5005393;28;20022;-69
2021/09/04 02:47:12;;;;;;;7.57;2.65;;;13.60;85.30;;;;;;5000387;28;20552;-71
2021/09/04 02:49:38;;;;;;;6.93;2.60;;;13.60;85.60;;;;;;4992578;28;20046;-70
2021/09/04 02:52:04;;;;;;;5.50;2.40;;;13.60;85.20;;;;;;5003370;28;20112;-71
2021/09/04 02:54:29;;;;;;;9.65;2.50;;;13.60;85.20;;;;;;5003733;28;20774;-72
2021/09/04 02:56:55;;;;;;;9.38;2.30;;;13.60;85.40;;;;;;5001987;28;20049;-70
2021/09/04 02:59:21;;;;;;;8.80;2.67;;;13.60;85.10;;;;;;5002813;28;20026;-70
2021/09/04 03:01:46;;;;;;;10.05;2.63;;;13.60;85.40;;;;;;4998315;28;20022;-70
2021/09/04 03:04:12;;;;;;;8.73;2.83;;;13.60;85.30;;;;;;4995652;28;20293;-72
2021/09/04 03:06:38;;;;;;;12.23;2.50;;;13.60;85.30;;;;;;5003839;28;20095;-69
2021/09/04 03:09:03;;;;;;;5.45;2.28;;;13.70;85.20;;;;;;5002913;28;20033;-71
2021/09/04 03:11:29;;;;;;;6.22;2.13;;;13.70;85.20;;;;;;4999836;28;20033;-70
2021/09/04 03:13:54;;;;;;;9.38;2.72;;;13.70;85.40;;;;;;5011621;28;20319;-71
2021/09/04 03:16:20;;;;;;;5.47;2.17;;;13.70;85.20;;;;;;4998450;28;20021;-70
2021/09/04 03:18:46;;;;;;;12.02;2.42;;;13.70;85.20;;;;;;5004809;28;20218;-71
2021/09/04 03:21:12;;;;;;;5.65;2.13;;;13.70;85.40;;;;;;4999108;28;20032;-69
2021/09/04 03:23:37;;;;;;;8.00;2.40;;;13.70;85.50;;;;;;5003071;28;20057;-75
2021/09/04 03:26:04;;;;;;;7.22;2.63;;;13.70;85.40;;;;;;5002047;28;20061;-71
2021/09/04 03:28:30;;;;;;;8.85;2.28;;;13.80;85.60;;;;;;5002135;28;20029;-70
2021/09/04 03:30:55;;;;;;;6.38;2.25;;;13.70;85.70;;;;;;5000651;28;20480;-69
2021/09/04 03:33:21;;;;;;;8.02;2.22;;;13.70;85.80;;;;;;5002238;28;20037;-70
2021/09/04 03:35:47;;;;;;;8.13;2.13;;;13.70;86.00;;;;;;5003942;28;20087;-72
2021/09/04 03:38:12;;;;;;;7.65;2.22;;;13.80;85.90;;;;;;5001399;28;20034;-70
2021/09/04 03:40:38;;;;;;;8.30;2.65;;;13.60;85.50;;;;;;5002455;28;20029;-70
2021/09/04 03:43:04;;;;;;;7.40;2.08;;;13.60;85.20;;;;;;5002384;28;20037;-71
2021/09/04 03:45:29;;;;;;;9.15;2.35;;;13.60;85.20;;;;;;4998467;28;20029;-70
2021/09/04 03:47:55;;;;;;;7.28;2.20;;;13.60;85.40;;;;;;5000026;28;20065;-70
2021/09/04 03:50:21;;;;;;;5.97;2.08;;;13.60;85.60;;;;;;4997288;28;20030;-70
2021/09/04 03:52:46;;;;;;;9.70;2.10;;;13.60;85.30;;;;;;4999996;28;20262;-70
2021/09/04 03:55:12;;;;;;;6.00;2.10;;;13.70;85.80;;;;;;5005901;28;20109;-70
2021/09/04 03:57:37;;;;;;;5.60;2.10;;;13.60;86.60;;;;;;5007151;28;20030;-70
2021/09/04 04:00:05;;;;;;;7.53;2.50;;;13.70;85.60;;;;;;5004766;28;20030;-71
2021/09/04 04:02:30;;;;;;;9.38;2.45;;;13.70;85.50;;;;;;4996822;28;20029;-70
2021/09/04 04:04:56;;;;;;;7.30;2.63;;;13.70;85.70;;;;;;5001310;28;20018;-70
2021/09/04 04:07:22;;;;;;;13.80;2.55;;;13.70;85.40;;;;;;5002350;28;20032;-69
2021/09/04 04:09:48;;;;;;;6.32;1.83;;;13.70;85.30;;;;;;5004239;28;20424;-70
2021/09/04 04:12:13;;;;;;;6.72;2.00;;;13.70;85.30;;;;;;5001301;28;20318;-71
2021/09/04 04:14:39;;;;;;;5.93;2.20;;;13.80;85.60;;;;;;5003379;28;20473;-69
2021/09/04 04:17:05;;;;;;;7.70;2.30;;;13.70;85.80;;;;;;5003757;28;20037;-69
2021/09/04 04:19:30;;;;;;;4.18;1.80;;;13.80;85.70;;;;;;5005089;28;20076;-71
2021/09/04 04:21:56;;;;;;;5.97;1.83;;;13.70;86.10;;;;;;5000725;28;20038;-68
2021/09/04 04:24:22;;;;;;;8.85;2.30;;;13.70;86.30;;;;;;5022585;28;20266;-67
2021/09/04 04:26:47;;;;;;;8.10;1.85;;;13.70;86.40;;;;;;5001891;28;20033;-67
2021/09/04 04:29:13;;;;;;;8.30;2.15;;;13.70;86.70;;;;;;5007750;28;20022;-69
2021/09/04 04:31:39;;;;;;;6.50;1.85;;;13.70;86.40;;;;;;5005667;28;20022;-68
2021/09/04 04:34:05;;;;;;;13.07;2.33;;;13.60;86.00;;;;;;5007500;28;20323;-68
2021/09/04 04:36:32;;;;;;;7.43;2.00;;;13.70;86.50;;;;;;5006539;28;20029;-68
2021/09/04 04:38:57;;;;;;;10.57;2.30;;;13.60;86.90;;;;;;5008072;28;20026;-68
2021/09/04 04:41:23;;;;;;;5.65;1.95;;;13.60;87.20;;;;;;5006653;28;20374;-68
2021/09/04 04:43:50;;;;;;;5.82;2.10;;;13.60;87.70;;;;;;5006289;28;20026;-68
2021/09/04 04:46:15;;;;;;;5.57;2.28;;;13.60;87.80;;;;;;5010314;28;20026;-68
2021/09/04 04:48:41;;;;;;;8.95;2.42;;;13.60;87.50;;;;;;5006109;28;20503;-68
2021/09/04 04:51:07;;;;;;;5.90;2.08;;;13.60;86.90;;;;;;5005747;28;20038;-68
2021/09/04 04:53:32;;;;;;;9.52;2.35;;;13.60;87.00;;;;;;5006041;28;20092;-68
2021/09/04 04:56:02;;;;;;;8.07;2.42;;;13.60;87.10;;;;;;5007349;28;20030;-68
2021/09/04 04:58:28;;;;;;;6.53;2.20;;;13.70;87.10;;;;;;5006381;28;20033;-68
2021/09/04 05:00:54;;;;;;;10.40;1.95;;;13.70;86.80;;;;;;5005590;28;20030;-69
2021/09/04 05:03:20;;;;;;;8.68;2.40;;;13.70;87.50;;;;;;5009467;28;20072;-68
2021/09/04 05:05:46;;;;;;;7.65;2.38;;;13.70;87.70;;;;;;5011632;28;20026;-68
2021/09/04 05:08:11;;;;;;;9.75;2.42;;;13.70;87.30;;;;;;5005825;28;20349;-68
2021/09/04 05:10:37;;;;;;;6.85;2.25;;;13.70;87.50;;;;;;5006420;28;20467;-68
2021/09/04 05:13:03;;;;;;;9.35;2.40;;;13.70;87.50;;;;;;5005336;28;20088;-68
2021/09/04 05:15:28;;;;;;;6.30;2.20;;;13.70;87.70;;;;;;5006412;28;20044;-68
2021/09/04 05:17:54;;;;;;;5.97;2.00;;;13.70;88.00;;;;;;5000858;28;20066;-68
2021/09/04 05:20:20;;;;;;;6.07;1.92;;;13.70;88.00;;;;;;4986702;28;20496;-68
2021/09/04 05:22:47;;;;;;;6.53;2.20;;;13.80;87.80;;;;;;5003038;28;20033;-68
2021/09/04 05:25:14;;;;;;;6.43;1.90;;;13.80;87.80;;;;;;5007270;28;20025;-68
2021/09/04 05:27:40;;;;;;;5.75;2.15;;;13.90;87.80;;;;;;5004444;28;20393;-68
2021/09/04 05:30:06;;;;;;;7.57;2.08;;;14.00;88.10;;;;;;5006905;28;20037;-68
2021/09/04 05:32:32;;;;;;;7.53;2.33;;;14.00;87.40;;;;;;5003453;28;20044;-68
2021/09/04 05:34:59;;;;;;;7.47;1.92;;;14.00;88.00;;;;;;5006963;28;20018;-67
2021/09/04 05:37:26;;;;;;;4.25;2.00;;;14.00;88.40;;;;;;5005438;28;20099;-66
2021/09/04 05:39:52;;;;;;;6.07;2.20;;;14.00;88.60;;;;;;5008169;28;20045;-66
2021/09/04 05:42:17;;;;;;;5.00;2.30;;;14.00;88.50;;;;;;5005712;28;20053;-66
2021/09/04 05:44:43;;;;;;;9.38;2.08;;;14.10;88.20;;;;;;5001580;28;20092;-65
2021/09/04 05:47:09;;;;;;;6.88;1.90;;;14.10;87.40;;;;;;4990977;28;20034;-66
2021/09/04 05:49:34;;;;;;;6.07;2.03;;;14.10;87.20;;;;;;5005868;28;20307;-66
2021/09/04 05:52:00;;;;;;;6.45;2.25;;;14.10;87.80;;;;;;5000175;28;20524;-66
2021/09/04 05:54:26;;;;;;;7.13;2.10;;;14.20;88.10;;;;;;5006027;28;20026;-66
2021/09/04 05:56:51;;;;;;;8.68;2.05;;;14.30;87.70;;;;;;5005155;28;20030;-66
2021/09/04 05:59:17;;;;;;;8.25;2.25;;;14.30;86.90;;;;;;5003555;28;20121;-66
2021/09/04 06:01:44;;;;;;;5.20;1.60;;;14.30;87.30;;;;;;5007139;28;20320;-66
2021/09/04 06:04:09;;;;;;;5.63;1.90;;;14.50;87.10;;;;;;5004701;28;20453;-66
2021/09/04 06:06:35;;;;;;;7.10;2.00;;;14.50;86.70;;;;;;5005529;28;20029;-66
2021/09/04 06:09:03;;;;;;;9.27;2.45;;;14.50;87.10;;;;;;5007108;28;20037;-66
2021/09/04 06:11:29;;;;;;;8.57;2.13;;;14.60;86.90;;;;;;5009451;28;20235;-69
2021/09/04 06:13:56;;;;;;;6.97;1.83;;;14.60;86.90;;;;;;4999557;28;20183;-67
2021/09/04 06:16:21;;;;;;;8.43;2.33;;;14.60;87.20;;;;;;5006444;28;20077;-67
2021/09/04 06:18:47;;;;;;;7.90;2.05;;;14.60;86.90;;;;;;5004241;28;20062;-66
2021/09/04 06:21:13;;;;;;;7.68;2.00;;;14.70;86.00;;;;;;4987236;28;20030;-67
2021/09/04 06:23:38;;;;;;;5.25;2.17;;;14.60;86.40;;;;;;5005126;28;20026;-66
2021/09/04 06:26:04;;;;;;;5.63;2.45;;;14.70;85.50;;;;;;5007572;28;20022;-67
2021/09/04 06:28:29;;;;;;;4.60;1.73;;;14.80;85.40;;;;;;5006331;28;20029;-66
2021/09/04 06:30:55;;;;;;;9.90;2.33;;;14.90;85.40;;;;;;5011357;28;20033;-67
2021/09/04 06:33:20;;;;;;;5.40;2.40;;;15.00;85.00;;;;;;5003757;28;20061;-67
2021/09/04 06:35:46;;;;;;;5.97;2.17;;;15.00;84.20;;;;;;5006204;28;20465;-67
2021/09/04 06:38:13;;;;;;;8.05;2.33;;;15.00;84.30;;;;;;5002463;28;20185;-66
2021/09/04 06:40:39;;;;;;;5.15;2.17;;;15.00;84.00;;;;;;5002243;28;20030;-67
2021/09/04 06:43:06;;;;;;;10.30;2.30;;;15.10;84.50;;;;;;5003630;28;20114;-67
2021/09/04 06:45:31;;;;;;;5.70;2.00;;;15.30;84.10;;;;;;5002445;28;20033;-67
2021/09/04 06:47:57;;;;;;;11.63;2.78;;;15.30;84.20;;;;;;5008976;28;20034;-67
2021/09/04 06:50:23;;;;;;;6.32;2.30;;;15.40;83.30;;;;;;5009608;28;20038;-67
2021/09/04 06:52:48;;;;;;;10.73;2.40;;;15.40;83.30;;;;;;5004731;28;20029;-67
2021/09/04 06:55:14;;;;;;;8.63;2.05;;;15.50;82.70;;;;;;5010514;28;20032;-66
2021/09/04 06:57:40;;;;;;;6.28;2.08;;;15.40;83.20;;;;;;5010674;28;20612;-69
2021/09/04 07:00:06;;;;;;;7.60;2.65;;;15.50;82.50;;;;;;5003398;28;20098;-67
2021/09/04 07:02:32;;;;;;;7.15;2.42;;;15.40;82.80;;;;;;5002016;28;20125;-67
2021/09/04 07:04:57;;;;;;;6.93;2.33;;;15.40;82.90;;;;;;5005923;28;20298;-67
2021/09/04 07:07:23;;;;;;;8.82;2.42;;;15.60;83.00;;;;;;5004638;28;20498;-66
2021/09/04 07:09:49;;;;;;;6.72;2.58;;;15.70;82.80;;;;;;5006297;28;20026;-67
2021/09/04 07:12:14;;;;;;;11.07;2.50;;;15.80;81.40;;;;;;5001496;28;20025;-67
2021/09/04 07:14:40;;;;;;;8.45;3.05;;;15.90;81.80;;;;;;5005282;28;20432;-66
2021/09/04 07:17:05;;;;;;;9.77;2.97;;;15.80;80.60;;;;;;5003351;28;20037;-67
2021/09/04 07:19:31;;;;;;;7.38;3.30;;;15.90;80.40;;;;;;5004250;28;20018;-66
2021/09/04 07:21:56;;;;;;;9.05;2.75;;;15.80;80.20;;;;;;4999912;28;20034;-66
2021/09/04 07:24:22;;;;;;;10.57;3.35;;;16.10;79.40;;;;;;5001831;28;20040;-67
2021/09/04 07:26:48;;;;;;;9.85;3.90;;;16.00;77.90;;;;;;5011281;28;20022;-67
2021/09/04 07:29:13;;;;;;;10.05;3.92;;;16.10;78.10;;;;;;5013193;28;20030;-67
2021/09/04 07:31:39;;;;;;;13.15;4.13;;;16.10;77.60;;;;;;5005150;28;20046;-67
2021/09/04 07:34:04;;;;;;;11.13;3.72;;;16.10;77.00;;;;;;4998639;28;20030;-67
2021/09/04 07:36:30;;;;;;;11.07;4.32;;;16.20;76.90;;;;;;5014296;28;20022;-67
2021/09/04 07:38:56;;;;;;;10.65;4.35;;;16.20;77.10;;;;;;5003682;28;20037;-67
2021/09/04 07:41:21;;;;;;;12.55;3.97;;;16.20;77.40;;;;;;5005254;28;20077;-67
2021/09/04 07:43:47;;;;;;;8.85;3.85;;;16.30;77.20;;;;;;5002038;28;20567;-67
2021/09/04 07:46:13;;;;;;;9.10;4.60;;;16.30;77.40;;;;;;5006208;28;20308;-67
2021/09/04 07:48:38;;;;;;;11.88;4.68;;;16.40;74.90;;;;;;5004605;28;20473;-67
2021/09/04 07:51:04;;;;;;;10.38;4.65;;;16.50;74.80;;;;;;5006415;28;20041;-67
2021/09/04 07:53:29;;;;;;;9.65;4.43;;;16.50;75.30;;;;;;5004602;28;20032;-67
2021/09/04 07:55:55;;;;;;;11.43;5.20;;;16.40;75.90;;;;;;5003912;28;20520;-66
2021/09/04 07:58:21;;;;;;;11.18;4.85;;;16.50;75.40;;;;;;5016933;28;20111;-67
2021/09/04 08:00:46;;;;;;;13.18;5.70;;;16.50;73.20;;;;;;5008120;28;20504;-66
2021/09/04 08:03:12;;;;;;;10.95;5.03;;;16.60;74.90;;;;;;5012465;28;20137;-67
2021/09/04 08:05:37;;;;;;;13.38;5.85;;;16.80;73.30;;;;;;5007495;28;20069;-67
2021/09/04 08:08:03;;;;;;;12.95;5.60;;;16.70;71.20;;;;;;5004687;28;20432;-67
2021/09/04 08:10:29;;;;;;;11.45;5.18;;;16.80;71.60;;;;;;5005415;28;20041;-67
2021/09/04 08:12:54;;;;;;;11.18;5.18;;;16.90;70.70;;;;;;4998985;28;20486;-67
2021/09/04 08:15:20;;;;;;;14.63;5.50;;;16.80;70.90;;;;;;5007068;28;20025;-67
2021/09/04 08:17:46;;;;;;;16.45;5.95;;;16.80;70.40;;;;;;5010770;28;20092;-67
2021/09/04 08:20:12;;;;;;;13.15;5.75;;;16.80;69.90;;;;;;5017150;28;20053;-67
2021/09/04 08:22:38;;;;;;;12.32;4.90;;;16.50;69.30;;;;;;5004318;28;20108;-67
2021/09/04 08:25:04;;;;;;;17.40;5.88;;;16.70;69.60;;;;;;5008856;28;20113;-67
2021/09/04 08:27:29;;;;;;;13.32;6.07;;;16.90;69.30;;;;;;5003740;28;20026;-67
2021/09/04 08:29:55;;;;;;;12.55;5.80;;;17.20;69.30;;;;;;5007154;28;20465;-67
2021/09/04 08:32:21;;;;;;;13.45;4.88;;;17.00;70.10;;;;;;5005911;28;20048;-67
2021/09/04 08:34:46;;;;;;;12.65;5.18;;;17.20;72.00;;;;;;5009978;28;20029;-67
2021/09/04 08:37:12;;;;;;;13.65;5.57;;;17.10;69.80;;;;;;5012618;28;20017;-67
2021/09/04 08:39:38;;;;;;;10.20;4.82;;;17.10;69.30;;;;;;5014317;28;20546;-67
2021/09/04 08:42:04;;;;;;;11.30;5.07;;;17.20;68.80;;;;;;5020278;28;20396;-67
2021/09/04 08:44:30;;;;;;;12.27;5.68;;;17.30;68.20;;;;;;5001120;28;20033;-67
2021/09/04 08:46:55;;;;;;;14.23;5.28;;;17.40;67.20;;;;;;5007995;28;20029;-67
2021/09/04 08:49:22;;;;;;;12.13;5.15;;;17.30;69.40;;;;;;5006026;28;20018;-67
2021/09/04 08:51:47;;;;;;;12.20;5.75;;;17.20;68.50;;;;;;5008179;28;20378;-67
2021/09/04 08:54:14;;;;;;;10.15;4.65;;;17.30;69.10;;;;;;5004025;28;20100;-67
2021/09/04 08:56:40;;;;;;;12.98;5.28;;;17.50;68.20;;;;;;5005024;28;20041;-67
2021/09/04 08:59:06;;;;;;;15.85;4.93;;;17.50;66.90;;;;;;5018914;28;20037;-67
2021/09/04 09:01:32;;;;;;;13.23;5.15;;;17.50;68.60;;;;;;5008578;28;20678;-67
2021/09/04 09:04:04;;;;;;;11.93;5.55;;;17.40;68.50;;;;;;5001708;28;20030;-67
2021/09/04 09:06:32;;;;;;;10.10;5.00;;;17.40;68.80;;;;;;5007672;28;20018;-67
2021/09/04 09:08:58;;;;;;;10.57;5.60;;;17.10;68.60;;;;;;5003551;28;20022;-67
2021/09/04 09:11:24;;;;;;;10.50;5.10;;;17.00;69.50;;;;;;5000393;28;20057;-67
2021/09/04 09:13:53;;;;;;;9.65;4.38;;;17.30;69.40;;;;;;5005455;28;20030;-67
2021/09/04 09:16:20;;;;;;;9.45;4.85;;;17.10;66.60;;;;;;5006309;28;20104;-67
2021/09/04 09:18:57;;;;;;;14.68;5.25;;;17.60;67.20;;;;;;5012746;28;21541;-67
2021/09/04 09:21:27;;;;;;;12.50;5.32;;;17.80;66.70;;;;;;5000663;28;20061;-67
2021/09/04 09:24:16;;;;;;;12.18;5.20;;;17.80;66.80;;;;;;5004511;28;20025;-67
2021/09/04 09:26:50;;;;;;;17.65;6.65;;;18.00;65.20;;;;;;5005657;28;20195;-67
2021/09/04 09:29:20;;;;;;;26.83;10.68;;;17.80;65.40;;;;;;5004250;28;20427;-67
2021/09/04 09:31:46;;;;;;;11.90;5.05;;;18.00;65.70;;;;;;5001685;28;20117;-67
2021/09/04 09:34:13;;;;;;;11.35;5.32;;;18.10;67.20;;;;;;5007041;28;20516;-67
2021/09/04 09:36:49;;;;;;;10.82;5.35;;;18.40;67.00;;;;;;5003036;28;20025;-67
2021/09/04 09:39:15;;;;;;;13.32;4.70;;;18.30;65.50;;;;;;5004482;28;20358;-67
2021/09/04 09:41:51;;;;;;;10.50;4.90;;;18.20;64.90;;;;;;4993924;28;20029;-68
2021/09/04 09:44:22;;;;;;;11.75;4.65;;;18.60;64.80;;;;;;5002680;28;20038;-67
2021/09/04 09:46:55;;;;;;;13.57;5.53;;;18.70;62.40;;;;;;5003752;28;20053;-68
2021/09/04 09:49:32;;;;;;;11.70;4.80;;;18.80;62.80;;;;;;4999847;28;20050;-67
2021/09/04 09:52:05;;;;;;;10.55;5.07;;;18.60;63.20;;;;;;5006236;28;20038;-67
2021/09/04 09:54:33;;;;;;;9.43;4.80;;;18.10;64.10;;;;;;5002952;28;20037;-67
2021/09/04 09:57:04;;;;;;;12.15;4.90;;;18.10;64.00;;;;;;5007983;28;20432;-67
2021/09/04 09:59:31;;;;;;;11.68;5.05;;;18.10;64.30;;;;;;5005349;28;20026;-67
2021/09/04 10:02:10;;;;;;;8.85;4.57;;;18.20;65.20;;;;;;5004128;28;20362;-67
2021/09/04 10:04:38;;;;;;;8.95;4.72;;;18.30;64.50;;;;;;5006982;28;20487;-67
2021/09/04 10:07:06;;;;;;;9.63;5.03;;;18.20;63.50;;;;;;5005370;28;20033;-67
2021/09/04 10:09:32;;;;;;;10.40;4.82;;;18.40;62.10;;;;;;5005070;28;20280;-67
2021/09/04 10:11:58;;;;;;;9.13;4.57;;;18.50;63.90;;;;;;5004356;28;20061;-68
2021/09/04 10:14:25;;;;;;;11.10;4.97;;;18.60;61.80;;;;;;5006530;28;20105;-67
2021/09/04 10:16:59;;;;;;;11.88;5.35;;;18.60;63.60;;;;;;5001113;28;20034;-67
2021/09/04 10:19:27;;;;;;;11.43;4.97;;;18.60;61.40;;;;;;5009687;28;20025;-68
2021/09/04 10:22:02;;;;;;;14.65;4.95;;;19.00;63.90;;;;;;5005219;28;20021;-67
2021/09/04 10:24:42;;;;;;;11.45;5.00;;;19.10;62.60;;;;;;5006167;28;20032;-67
2021/09/04 10:27:11;;;;;;;10.38;4.38;;;19.10;61.40;;;;;;5007214;28;20030;-67
2021/09/04 10:29:42;;;;;;;11.30;4.75;;;18.90;61.90;;;;;;5006827;28;20021;-67
2021/09/04 10:32:08;;;;;;;11.15;4.85;;;18.80;61.40;;;;;;5002640;28;20051;-67
2021/09/04 10:34:37;;;;;;;11.50;4.35;;;18.90;63.00;;;;;;5002012;28;20529;-67
2021/09/04 10:37:03;;;;;;;10.55;4.90;;;18.60;61.40;;;;;;5002522;28;20045;-67
2021/09/04 10:39:47;;;;;;;9.10;4.15;;;19.00;61.40;;;;;;5004836;28;20112;-67
2021/09/04 10:42:16;;;;;;;8.95;4.68;;;19.00;60.10;;;;;;5006847;28;20042;-67
2021/09/04 10:44:44;;;;;;;11.68;4.90;;;19.50;61.80;;;;;;5005631;28;20030;-67
2021/09/04 10:47:11;;;;;;;11.25;4.60;;;19.70;59.40;;;;;;5003709;28;20025;-68
2021/09/04 10:49:45;;;;;;;10.43;4.45;;;20.20;60.80;;;;;;5004645;28;20456;-67
2021/09/04 10:52:11;;;;;;;9.52;3.97;;;20.50;57.10;;;;;;5003019;28;20473;-68
2021/09/04 10:54:58;;;;;;;9.57;4.22;;;20.20;55.90;;;;;;5006145;28;20068;-68
2021/09/04 10:57:24;;;;;;;7.65;3.40;;;20.50;56.40;;;;;;5004038;28;20034;-68
2021/09/04 10:59:59;;;;;;;9.35;4.13;;;20.70;61.40;;;;;;4998611;28;20030;-67
2021/09/04 11:02:46;;;;;;;8.38;4.70;;;20.40;59.10;;;;;;4999612;28;20033;-67
2021/09/04 11:05:29;;;;;;;8.32;3.78;;;19.80;58.30;;;;;;5004018;28;20124;-67
2021/09/04 11:08:03;;;;;;;9.50;4.25;;;19.50;58.20;;;;;;5003503;28;20024;-67
2021/09/04 11:10:29;;;;;;;8.25;4.35;;;19.70;60.70;;;;;;5004167;28;20036;-67
2021/09/04 11:13:13;;;;;;;8.85;4.07;;;19.60;58.70;;;;;;5002987;28;20025;-68
2021/09/04 11:15:44;;;;;;;12.73;3.83;;;19.80;60.40;;;;;;5001961;28;20028;-67
2021/09/04 11:18:11;;;;;;;13.18;4.15;;;19.20;59.00;;;;;;5003175;28;20029;-67
2021/09/04 11:20:45;;;;;;;9.20;4.60;;;19.30;60.80;;;;;;5003738;28;20030;-67
2021/09/04 11:23:11;;;;;;;11.50;3.88;;;19.40;61.80;;;;;;5002958;28;20030;-67
2021/09/04 11:25:42;;;;;;;8.48;3.72;;;19.70;60.30;;;;;;5004468;28;20567;-67
2021/09/04 11:28:08;;;;;;;10.48;4.10;;;19.90;58.70;;;;;;5002174;28;20056;-68
2021/09/04 11:30:34;;;;;;;9.02;4.65;;;19.90;59.70;;;;;;5005124;28;20489;-67
2021/09/04 11:33:20;;;;;;;8.65;3.97;;;19.60;59.00;;;;;;4999920;28;20034;-67
2021/09/04 11:35:46;;;;;;;8.00;3.75;;;20.10;59.30;;;;;;5003889;28;20041;-67
2021/09/04 11:38:12;;;;;;;9.27;4.00;;;20.40;59.40;;;;;;4997872;28;20041;-68
2021/09/04 11:40:37;;;;;;;9.93;4.38;;;20.50;60.20;;;;;;5001106;28;20030;-68
2021/09/04 11:43:05;;;;;;;9.20;4.10;;;20.70;59.80;;;;;;4999998;28;20034;-68
2021/09/04 11:45:32;;;;;;;11.48;4.55;;;20.30;58.60;;;;;;5007979;28;20022;-67
2021/09/04 11:48:07;;;;;;;9.15;3.92;;;20.10;58.60;;;;;;5013052;28;20092;-67
2021/09/04 11:50:33;;;;;;;12.23;4.10;;;20.00;59.10;;;;;;4999107;28;20129;-68
2021/09/04 11:53:05;;;;;;;9.45;3.67;;;19.60;60.10;;;;;;5001877;28;20034;-67
2021/09/04 11:55:31;;;;;;;8.23;4.28;;;19.50;60.60;;;;;;5005440;28;20477;-67
2021/09/04 11:58:02;;;;;;;8.48;3.92;;;19.50;61.10;;;;;;5003671;28;20034;-67
2021/09/04 12:00:37;;;;;;;7.85;4.00;;;19.40;62.10;;;;;;5003707;28;20038;-67
2021/09/04 12:03:08;;;;;;;7.95;3.63;;;19.10;63.10;;;;;;5002435;28;20116;-67
2021/09/04 12:05:38;;;;;;;7.88;4.00;;;19.20;63.20;;;;;;5002654;28;20030;-67
2021/09/04 12:08:12;;;;;;;10.55;4.32;;;19.10;62.30;;;;;;5008173;28;20038;-67
2021/09/04 12:10:40;;;;;;;9.15;4.20;;;19.00;62.80;;;;;;5002325;28;20034;-67
2021/09/04 12:13:26;;;;;;;9.25;4.03;;;19.30;62.10;;;;;;5013016;28;20056;-67
2021/09/04 12:15:54;;;;;;;9.35;4.03;;;19.90;59.00;;;;;;5007428;28;20500;-68
2021/09/04 12:18:39;;;;;;;9.15;3.60;;;21.10;58.80;;;;;;5001308;28;20108;-68
2021/09/04 12:21:48;;;;;;;8.15;3.75;;;21.10;56.70;;;;;;4985654;28;20100;-68
2021/09/04 12:24:14;;;;;;;10.52;3.85;;;20.60;56.80;;;;;;4965204;28;20375;-68
2021/09/04 12:26:52;;;;;;;6.22;3.80;;;20.50;57.80;;;;;;5006511;28;20323;-68
2021/09/04 12:29:18;;;;;;;8.75;3.88;;;20.50;58.90;;;;;;4997090;28;20152;-67
2021/09/04 12:31:45;;;;;;;7.88;4.05;;;20.30;59.90;;;;;;5001502;28;20097;-67
2021/09/04 12:34:22;;;;;;;8.77;3.75;;;20.10;61.10;;;;;;5003498;28;20032;-67
2021/09/04 12:36:49;;;;;;;9.40;3.42;;;20.00;61.20;;;;;;5000639;28;20018;-68
2021/09/04 12:39:23;;;;;;;8.52;3.72;;;20.10;63.30;;;;;;5004798;28;20046;-67
2021/09/04 12:42:02;;;;;;;9.77;4.18;;;20.30;61.80;;;;;;4990400;28;20019;-67
2021/09/04 12:44:42;;;;;;;8.98;4.07;;;20.10;63.10;;;;;;5007503;28;20092;-67